createdAt,value
2023-03-21T06:02:56.869Z,98.04
2023-03-21T06:05:33.783Z,98.60
2023-03-21T06:08:03.779Z,98.06
2023-03-21T06:10:40.772Z,98.36
2023-03-21T06:13:17.830Z,98.28
2023-03-21T06:15:47.931Z,98.53
2023-03-21T06:18:26.835Z,98.13
2023-03-21T06:20:57.584Z,98.80
2023-03-21T06:23:33.862Z,97.64
2023-03-21T06:26:10.822Z,98.70
2023-03-21T06:28:40.884Z,98.11
2023-03-21T06:31:17.872Z,98.63
2023-03-21T06:33:50.537Z,98.02
2023-03-21T06:36:27.856Z,97.97
2023-03-21T06:39:04.857Z,97.55
2023-03-21T06:41:35.022Z,97.66
2023-03-21T06:44:11.827Z,98.56
2023-03-21T06:46:48.973Z,98.34
2023-03-21T06:49:22.140Z,97.63
2023-03-21T06:51:58.909Z,98.07
2023-03-21T06:54:29.131Z,97.97
2023-03-21T06:57:05.876Z,98.28
2023-03-21T06:59:42.863Z,98.49
2023-03-21T07:02:14.105Z,97.55
2023-03-21T07:04:52.837Z,97.73
2023-03-21T07:07:23.074Z,97.98
2023-03-21T07:09:59.851Z,98.30
2023-03-21T07:12:29.913Z,98.02
2023-03-21T07:15:06.931Z,97.90
2023-03-21T07:17:37.054Z,97.36
2023-03-21T07:20:18.883Z,97.67
2023-03-21T07:22:49.016Z,97.23
2023-03-21T07:25:26.877Z,97.13
2023-03-21T07:27:57.173Z,97.09
2023-03-21T07:30:33.923Z,97.20
2023-03-21T07:33:03.968Z,96.73
2023-03-21T07:35:43.988Z,97.51
2023-03-21T07:38:16.846Z,97.67
2023-03-21T07:40:53.877Z,97.13
2023-03-21T07:43:24.073Z,97.75
2023-03-21T07:46:01.003Z,97.00
2023-03-21T07:48:31.944Z,97.04
2023-03-21T07:51:12.904Z,97.42
2023-03-21T07:53:43.887Z,97.22
2023-03-21T07:56:19.943Z,97.54
2023-03-21T07:58:56.930Z,97.57
2023-03-21T08:01:28.181Z,96.69
2023-03-21T08:04:04.970Z,97.33
2023-03-21T08:06:37.578Z,97.80
2023-03-21T08:09:13.934Z,97.85
2023-03-21T08:11:44.066Z,98.33
2023-03-21T08:14:20.964Z,97.49
2023-03-21T08:16:51.092Z,97.31
2023-03-21T08:19:27.979Z,97.20
2023-03-21T08:22:09.057Z,97.44
2023-03-21T08:24:39.200Z,97.19
2023-03-21T08:27:16.034Z,97.13
2023-03-21T08:29:52.933Z,97.29
2023-03-21T08:32:28.454Z,97.64
2023-03-21T08:35:04.995Z,97.17
2023-03-21T08:37:43.983Z,96.79
2023-03-21T08:40:17.135Z,97.39
2023-03-21T08:42:54.027Z,96.87
2023-03-21T08:45:24.540Z,96.94
2023-03-21T08:48:00.997Z,95.95
2023-03-21T08:50:31.844Z,96.79
2023-03-21T08:53:10.996Z,96.78
2023-03-21T08:55:41.253Z,96.78
2023-03-21T08:58:18.054Z,96.19
2023-03-21T09:00:48.140Z,97.23
2023-03-21T09:03:27.022Z,95.71
2023-03-21T09:05:58.426Z,95.22
2023-03-21T09:08:38.016Z,96.03
2023-03-21T09:11:08.838Z,95.17
2023-03-21T09:13:45.055Z,95.30
2023-03-21T09:16:22.100Z,95.42
2023-03-21T09:18:55.823Z,95.93
2023-03-21T09:21:34.077Z,94.96
2023-03-21T09:24:07.366Z,95.35
2023-03-21T09:26:44.103Z,95.30
2023-03-21T09:29:16.036Z,94.68
2023-03-21T09:31:53.043Z,95.15
2023-03-21T09:34:30.067Z,95.31
2023-03-21T09:37:00.119Z,95.07
2023-03-21T09:39:39.121Z,94.66
2023-03-21T09:42:22.877Z,93.77
2023-03-21T09:45:15.116Z,93.37
2023-03-21T09:47:53.241Z,94.04
2023-03-21T09:50:38.143Z,92.33
2023-03-21T09:53:14.964Z,92.59
2023-03-21T09:55:54.082Z,92.32
2023-03-21T09:58:37.152Z,92.42
2023-03-21T10:01:22.430Z,91.40
2023-03-21T10:04:01.241Z,91.69
2023-03-21T10:06:32.220Z,91.19
2023-03-21T10:09:16.145Z,90.43
2023-03-21T10:11:53.408Z,89.31
2023-03-21T10:14:35.128Z,89.18
2023-03-21T10:17:20.615Z,88.46
2023-03-21T10:20:04.139Z,88.58
2023-03-21T10:22:41.102Z,88.10
2023-03-21T10:25:18.015Z,87.23
2023-03-21T10:28:00.120Z,87.36
2023-03-21T10:30:35.210Z,87.97
2023-03-21T10:33:17.159Z,87.17
2023-03-21T10:35:59.197Z,85.52
2023-03-21T10:38:29.614Z,85.79
2023-03-21T10:41:06.092Z,86.09
2023-03-21T10:43:42.177Z,85.58
2023-03-21T10:46:22.253Z,84.95
2023-03-21T10:49:03.283Z,84.93
2023-03-21T10:51:38.543Z,84.70
2023-03-21T10:54:18.109Z,85.05
2023-03-21T10:56:57.070Z,84.56
2023-03-21T10:59:44.221Z,84.04
2023-03-21T11:02:22.561Z,84.09
2023-03-21T11:05:00.444Z,84.52
2023-03-21T11:07:40.165Z,84.27
2023-03-21T11:10:30.466Z,83.98
2023-03-21T11:13:11.217Z,83.38
2023-03-21T11:16:03.218Z,82.81
2023-03-21T11:18:35.009Z,83.59
2023-03-21T11:21:14.224Z,82.90
2023-03-21T11:23:54.206Z,83.50
2023-03-21T11:26:32.817Z,83.04
2023-03-21T11:29:11.205Z,83.30
2023-03-21T11:31:44.983Z,82.47
2023-03-21T11:34:37.270Z,82.35
2023-03-21T11:37:07.834Z,81.90
2023-03-21T11:39:48.285Z,81.36
2023-03-21T11:42:40.252Z,80.57
2023-03-21T11:45:18.223Z,79.94
2023-03-21T11:47:59.272Z,79.07
2023-03-21T11:50:35.756Z,78.63
2023-03-21T11:53:34.298Z,78.99
2023-03-21T11:56:32.275Z,79.11
2023-03-21T11:59:30.844Z,78.62
2023-03-21T12:02:42.324Z,78.54
2023-03-21T12:05:22.778Z,77.54
2023-03-21T12:08:09.282Z,76.58
2023-03-21T12:10:56.300Z,75.15
2023-03-21T12:13:44.249Z,76.32
2023-03-21T12:16:36.376Z,74.62
2023-03-21T12:19:42.389Z,74.88
2023-03-21T12:22:34.259Z,74.12
2023-03-21T12:25:19.288Z,72.67
2023-03-21T12:27:57.685Z,70.96
2023-03-21T12:30:46.321Z,69.95
2023-03-21T12:33:58.310Z,70.37
2023-03-21T12:36:44.158Z,69.63
2023-03-21T12:39:37.278Z,70.73
2023-03-21T12:42:41.669Z,70.83
2023-03-21T12:45:34.218Z,70.80
2023-03-21T12:48:22.557Z,70.11
2023-03-21T12:51:03.296Z,69.93
2023-03-21T12:53:47.761Z,68.75
2023-03-21T12:56:33.312Z,68.98
2023-03-21T12:59:16.858Z,68.93
2023-03-21T13:01:57.421Z,69.12
2023-03-21T13:04:39.839Z,68.88
2023-03-21T13:07:23.368Z,68.39
2023-03-21T13:10:02.450Z,68.65
2023-03-21T13:12:48.383Z,68.79
2023-03-21T13:15:55.437Z,68.97
2023-03-21T13:18:59.245Z,68.94
2023-03-21T13:21:55.338Z,69.86
2023-03-21T13:24:35.328Z,70.09
2023-03-21T13:27:17.418Z,70.08
2023-03-21T13:29:54.662Z,69.96
2023-03-21T13:32:39.412Z,70.81
2023-03-21T13:35:21.303Z,70.46
2023-03-21T13:38:02.406Z,70.43
2023-03-21T13:40:41.292Z,70.35
2023-03-21T13:43:44.366Z,70.75
2023-03-21T13:46:50.566Z,70.41
2023-03-21T13:49:39.413Z,69.81
2023-03-21T13:52:36.417Z,69.95
2023-03-21T13:55:17.624Z,69.41
2023-03-21T13:57:57.410Z,69.17
2023-03-21T14:00:35.138Z,69.38
